Promise, South Dakota
Current Conditions -  °F | °C
As of 1:52 PM on Sunday 23 Nov 2014 (Local Time) from KMBG Reporting Station
Broken Clouds Broken Clouds  
Wind Chill: 20°   Ceiling: 3500
Heat Index: 33°   Visibility: 10mi
Dew Point: 21°   Wind: 28mph
Humidity: 61%   Direction: 310°NW
Pressure: 29.57"   Gusts: 40mph
Location:  45.5528°N, 100.336°W
Report Text: KMBG 231952Z AUTO 31024G35KT 10SM BKN035 BKN065 01/M06 A2957 RMK AO2 PK WND 31039/1901 SLP028 T00061061
Loading
Personal Weather Stations






























Interactive Weather Map New forecast layout! Learn more

10-Day Weather Forecast

Advertisements
Track Severe Weather on mobile